createdAt,value
2022-12-01T00:01:19.063Z,10.43
2022-12-01T00:03:45.925Z,10.44
2022-12-01T00:06:21.500Z,10.42
2022-12-01T00:09:09.205Z,10.43
2022-12-01T00:11:37.955Z,10.42
2022-12-01T00:14:05.784Z,10.42
2022-12-01T00:16:33.345Z,10.42
2022-12-01T00:19:00.439Z,10.41
2022-12-01T00:21:27.879Z,10.42
2022-12-01T00:23:56.796Z,10.42
2022-12-01T00:26:24.544Z,10.42
2022-12-01T00:28:52.961Z,10.41
2022-12-01T00:31:20.688Z,10.38
2022-12-01T00:33:47.738Z,10.42
2022-12-01T00:36:16.280Z,10.41
2022-12-01T00:38:43.136Z,10.42
2022-12-01T00:41:09.881Z,10.43
2022-12-01T00:43:36.894Z,10.44
2022-12-01T00:46:03.844Z,10.42
2022-12-01T00:48:30.941Z,10.43
2022-12-01T00:50:57.778Z,10.37
2022-12-01T00:53:24.835Z,10.41
2022-12-01T00:55:54.075Z,10.41
2022-12-01T00:58:21.980Z,10.40
2022-12-01T01:00:49.378Z,10.39
2022-12-01T01:03:16.107Z,10.36
2022-12-01T01:05:44.112Z,10.35
2022-12-01T01:08:12.931Z,10.36
2022-12-01T01:10:45.249Z,10.35
2022-12-01T01:13:13.392Z,10.35
2022-12-01T01:15:41.117Z,10.26
2022-12-01T01:18:09.817Z,10.34
2022-12-01T01:20:36.660Z,10.36
2022-12-01T01:23:03.696Z,10.37
2022-12-01T01:25:32.159Z,10.36
2022-12-01T01:27:58.907Z,10.38
2022-12-01T01:30:25.803Z,10.40
2022-12-01T01:32:52.568Z,10.40
2022-12-01T01:35:19.313Z,10.39
2022-12-01T01:37:46.251Z,10.42
2022-12-01T01:40:12.993Z,10.40
2022-12-01T01:42:39.737Z,10.40
2022-12-01T01:45:21.428Z,10.38
2022-12-01T01:47:50.194Z,10.42
2022-12-01T01:50:20.461Z,10.43
2022-12-01T01:52:58.161Z,10.41
2022-12-01T01:55:25.651Z,10.43
2022-12-01T01:57:52.435Z,10.45
2022-12-01T02:00:21.639Z,10.44
2022-12-01T02:02:50.603Z,10.45
2022-12-01T02:05:29.895Z,10.44
2022-12-01T02:07:58.868Z,10.47
2022-12-01T02:10:58.751Z,10.47
2022-12-01T02:13:48.202Z,10.45
2022-12-01T02:16:30.131Z,10.49
2022-12-01T02:19:22.864Z,10.46
2022-12-01T02:22:07.868Z,10.47
2022-12-01T02:24:52.462Z,10.46
2022-12-01T02:27:31.371Z,10.45
2022-12-01T02:30:09.272Z,10.47
2022-12-01T02:33:12.018Z,10.44
2022-12-01T02:35:51.288Z,10.42
2022-12-01T02:38:23.748Z,10.45
2022-12-01T02:41:16.927Z,10.43
2022-12-01T02:44:20.379Z,10.43
2022-12-01T02:46:55.741Z,10.44
2022-12-01T02:49:28.943Z,10.47
2022-12-01T02:51:57.432Z,10.49
2022-12-01T02:54:25.757Z,10.49
2022-12-01T02:56:53.834Z,10.49
2022-12-01T02:59:20.719Z,10.51
2022-12-01T03:02:13.673Z,10.50
2022-12-01T03:05:10.186Z,10.49
2022-12-01T03:07:43.910Z,10.51
2022-12-01T03:10:18.342Z,10.50
2022-12-01T03:12:47.864Z,10.50
2022-12-01T03:15:14.523Z,10.52
2022-12-01T03:17:54.819Z,10.51
2022-12-01T03:20:49.182Z,10.52
2022-12-01T03:23:20.871Z,10.55
2022-12-01T03:25:52.259Z,10.56
2022-12-01T03:28:23.986Z,10.54
2022-12-01T03:30:56.338Z,10.53
2022-12-01T03:33:34.913Z,10.57
2022-12-01T03:36:15.292Z,10.57
2022-12-01T03:38:49.202Z,10.58
2022-12-01T03:41:21.761Z,10.56
2022-12-01T03:43:56.173Z,10.54
2022-12-01T03:46:41.380Z,10.53
2022-12-01T03:49:09.893Z,10.52
2022-12-01T03:51:43.464Z,10.54
2022-12-01T03:54:52.329Z,10.51
2022-12-01T03:57:31.952Z,10.52
2022-12-01T03:59:58.859Z,10.52
2022-12-01T04:02:28.036Z,10.50
2022-12-01T04:04:55.105Z,10.53
2022-12-01T04:07:23.743Z,10.51
2022-12-01T04:09:50.983Z,10.50
2022-12-01T04:12:29.918Z,10.47
2022-12-01T04:14:58.130Z,10.46
2022-12-01T04:17:25.646Z,10.44
2022-12-01T04:19:53.071Z,10.44
2022-12-01T04:22:20.361Z,10.40
2022-12-01T04:24:47.329Z,10.43
2022-12-01T04:27:14.216Z,10.42
2022-12-01T04:29:41.139Z,10.41
2022-12-01T04:32:07.984Z,10.40
2022-12-01T04:34:34.863Z,10.32
2022-12-01T04:37:01.951Z,10.39
2022-12-01T04:39:28.724Z,10.38
2022-12-01T04:41:55.614Z,10.33
2022-12-01T04:44:22.388Z,10.39
2022-12-01T04:46:50.855Z,10.39
2022-12-01T04:49:17.800Z,10.38
2022-12-01T04:51:44.560Z,10.37
2022-12-01T04:54:11.263Z,10.35
2022-12-01T04:56:38.078Z,10.38
2022-12-01T04:59:04.940Z,10.38
2022-12-01T05:01:31.710Z,10.36
2022-12-01T05:03:58.538Z,10.37
2022-12-01T05:06:27.012Z,10.36
2022-12-01T05:08:59.673Z,10.36
2022-12-01T05:11:28.033Z,10.35
2022-12-01T05:13:54.920Z,10.37
2022-12-01T05:16:25.092Z,10.36
2022-12-01T05:19:12.856Z,10.35
2022-12-01T05:21:40.817Z,10.33
2022-12-01T05:24:08.604Z,10.33
2022-12-01T05:26:35.375Z,10.33
2022-12-01T05:29:02.721Z,10.30
2022-12-01T05:31:29.725Z,10.32
2022-12-01T05:33:56.613Z,10.33
2022-12-01T05:36:23.878Z,10.33
2022-12-01T05:38:50.625Z,10.33
2022-12-01T05:41:17.738Z,10.33
2022-12-01T05:43:44.610Z,10.30
2022-12-01T05:46:11.479Z,10.34
2022-12-01T05:48:38.264Z,10.33
2022-12-01T05:51:12.903Z,10.36
2022-12-01T05:53:39.753Z,10.35
2022-12-01T05:56:07.348Z,10.38
2022-12-01T05:58:34.472Z,10.37
2022-12-01T06:01:01.220Z,10.37
2022-12-01T06:03:28.096Z,10.37
2022-12-01T06:05:54.887Z,10.38
2022-12-01T06:08:21.745Z,10.39
2022-12-01T06:10:48.484Z,10.40
2022-12-01T06:13:15.419Z,10.39
2022-12-01T06:15:42.386Z,10.40
2022-12-01T06:18:09.394Z,10.39
2022-12-01T06:20:36.172Z,10.42
2022-12-01T06:23:03.324Z,10.41
2022-12-01T06:25:30.130Z,10.41
2022-12-01T06:28:00.289Z,10.36
2022-12-01T06:30:27.102Z,10.38
2022-12-01T06:32:54.076Z,10.38
2022-12-01T06:35:20.929Z,10.39
2022-12-01T06:37:47.716Z,10.38
2022-12-01T06:40:14.710Z,10.37
2022-12-01T06:42:41.550Z,10.35
2022-12-01T06:45:08.865Z,10.34
2022-12-01T06:47:35.995Z,10.33
2022-12-01T06:50:03.128Z,10.33
2022-12-01T06:52:29.877Z,10.33
2022-12-01T06:54:56.704Z,10.30
2022-12-01T06:57:23.719Z,10.31
2022-12-01T06:59:50.887Z,10.32
2022-12-01T07:02:18.326Z,10.29
2022-12-01T07:04:45.106Z,10.27
2022-12-01T07:07:12.387Z,10.27
2022-12-01T07:09:40.141Z,10.18
2022-12-01T07:12:07.567Z,10.26
2022-12-01T07:14:34.473Z,10.25
2022-12-01T07:17:01.363Z,10.24
2022-12-01T07:19:28.179Z,10.25
2022-12-01T07:21:54.911Z,10.25
2022-12-01T07:24:21.734Z,10.22
2022-12-01T07:26:48.480Z,10.23
2022-12-01T07:29:15.605Z,10.21
2022-12-01T07:31:42.505Z,10.23
2022-12-01T07:34:11.769Z,10.21
2022-12-01T07:36:38.473Z,10.21
2022-12-01T07:39:07.739Z,10.21
2022-12-01T07:41:35.088Z,10.21
2022-12-01T07:44:02.446Z,10.21
2022-12-01T07:46:29.545Z,10.18
2022-12-01T07:48:57.307Z,10.20
2022-12-01T07:51:25.776Z,10.15
2022-12-01T07:53:54.189Z,10.20
2022-12-01T07:56:22.364Z,10.19
2022-12-01T07:58:49.372Z,10.18
2022-12-01T08:01:19.526Z,10.15
2022-12-01T08:03:49.603Z,10.16
2022-12-01T08:06:17.461Z,10.19
2022-12-01T08:08:44.560Z,10.14
2022-12-01T08:11:17.292Z,10.16
2022-12-01T08:13:44.140Z,10.13
2022-12-01T08:16:13.563Z,10.16
2022-12-01T08:18:41.796Z,10.11
2022-12-01T08:21:10.849Z,10.14
2022-12-01T08:23:37.829Z,10.13
2022-12-01T08:26:09.824Z,10.14
2022-12-01T08:28:37.058Z,10.14
2022-12-01T08:31:08.699Z,10.14
2022-12-01T08:33:35.883Z,10.15
2022-12-01T08:36:04.452Z,10.15
2022-12-01T08:38:31.544Z,10.14
2022-12-01T08:41:03.389Z,10.14
2022-12-01T08:43:55.785Z,10.16
2022-12-01T08:46:17.118Z,10.13
2022-12-01T08:48:44.035Z,10.13
2022-12-01T08:51:16.242Z,10.12
2022-12-01T08:53:46.003Z,10.12
2022-12-01T08:56:20.313Z,10.12
2022-12-01T08:58:47.768Z,10.14
2022-12-01T09:01:16.569Z,10.14
2022-12-01T09:03:44.307Z,10.14
2022-12-01T09:06:14.079Z,10.12
2022-12-01T09:08:41.361Z,10.07
2022-12-01T09:11:12.042Z,9.97
2022-12-01T09:13:40.023Z,10.00
2022-12-01T09:16:10.823Z,9.96
2022-12-01T09:18:38.230Z,9.92
2022-12-01T09:21:17.109Z,9.93
2022-12-01T09:23:43.980Z,9.95
2022-12-01T09:26:13.727Z,9.96
2022-12-01T09:28:41.091Z,9.97
2022-12-01T09:31:10.251Z,10.02
2022-12-01T09:33:37.756Z,10.00
2022-12-01T09:36:06.166Z,10.10
2022-12-01T09:38:34.822Z,10.11
2022-12-01T09:41:05.972Z,10.17
2022-12-01T09:43:56.657Z,10.22
2022-12-01T09:46:29.997Z,10.26
2022-12-01T09:48:58.056Z,10.37
2022-12-01T09:51:28.437Z,10.41
2022-12-01T09:53:58.896Z,10.43
2022-12-01T09:56:30.025Z,10.46
2022-12-01T09:59:02.899Z,10.48
2022-12-01T10:01:43.152Z,10.47
2022-12-01T10:04:36.326Z,10.39
2022-12-01T10:07:25.645Z,10.49
2022-12-01T10:09:55.471Z,10.53
2022-12-01T10:12:27.777Z,10.58
2022-12-01T10:15:15.745Z,10.51
2022-12-01T10:18:08.383Z,10.48
2022-12-01T10:20:41.193Z,10.55
2022-12-01T10:23:32.253Z,10.56
2022-12-01T10:26:03.882Z,10.62
2022-12-01T10:28:43.013Z,10.60
2022-12-01T10:31:19.771Z,10.63
2022-12-01T10:34:16.220Z,10.62
2022-12-01T10:36:43.126Z,10.72
2022-12-01T10:39:20.146Z,10.73
2022-12-01T10:41:49.705Z,10.74
2022-12-01T10:44:18.501Z,10.80
2022-12-01T10:46:45.271Z,10.88
2022-12-01T10:49:17.359Z,10.94
2022-12-01T10:51:55.973Z,10.87
2022-12-01T10:54:31.917Z,10.96
2022-12-01T10:56:59.640Z,11.01
2022-12-01T10:59:26.349Z,11.01
2022-12-01T11:01:54.186Z,11.07
2022-12-01T11:04:25.305Z,11.04
2022-12-01T11:06:52.212Z,11.07
2022-12-01T11:09:26.449Z,10.98
2022-12-01T11:12:01.978Z,10.91
2022-12-01T11:15:01.763Z,10.82
2022-12-01T11:17:30.861Z,10.86
2022-12-01T11:19:58.235Z,10.80
2022-12-01T11:22:31.141Z,10.74
2022-12-01T11:25:02.566Z,10.71
2022-12-01T11:27:37.148Z,10.73
2022-12-01T11:30:20.371Z,10.77
2022-12-01T11:32:53.733Z,10.77
2022-12-01T11:35:24.371Z,10.83
2022-12-01T11:40:56.794Z,10.84
2022-12-01T11:43:36.031Z,10.81
2022-12-01T11:46:05.754Z,10.86
2022-12-01T11:48:37.418Z,10.90
2022-12-01T11:51:19.466Z,10.76
2022-12-01T11:53:46.701Z,10.83
2022-12-01T11:56:14.071Z,10.79
2022-12-01T11:58:45.468Z,10.75
2022-12-01T12:01:21.996Z,10.73
2022-12-01T12:04:32.715Z,10.76
2022-12-01T12:07:23.951Z,10.82
2022-12-01T12:10:07.763Z,10.95
2022-12-01T12:12:40.390Z,11.10
2022-12-01T12:15:09.894Z,11.13
2022-12-01T12:18:01.510Z,11.14
2022-12-01T12:20:34.154Z,11.11
2022-12-01T12:23:25.737Z,11.17
2022-12-01T12:26:03.621Z,11.02
2022-12-01T12:28:54.816Z,11.13
2022-12-01T12:31:27.876Z,11.11
2022-12-01T12:34:32.937Z,11.06
2022-12-01T12:37:30.262Z,10.96
2022-12-01T12:40:09.279Z,11.07
2022-12-01T12:43:13.605Z,10.98
2022-12-01T12:46:04.769Z,10.90
2022-12-01T12:49:11.681Z,10.88
2022-12-01T12:51:36.105Z,10.97
2022-12-01T12:54:20.921Z,10.94
2022-12-01T12:56:50.719Z,10.84
2022-12-01T12:59:25.600Z,10.75
2022-12-01T13:02:12.645Z,10.76
2022-12-01T13:04:51.560Z,10.68
2022-12-01T13:07:30.595Z,10.68
2022-12-01T13:10:05.066Z,10.59
2022-12-01T13:12:38.018Z,10.57
2022-12-01T13:15:20.253Z,10.49
2022-12-01T13:17:58.677Z,10.44
2022-12-01T13:20:28.893Z,10.49
2022-12-01T13:22:59.450Z,10.48
2022-12-01T13:25:32.938Z,10.49
2022-12-01T13:28:02.582Z,10.53
2022-12-01T13:30:29.448Z,10.54
2022-12-01T13:33:16.950Z,10.49
2022-12-01T13:35:43.751Z,10.60
2022-12-01T13:38:19.467Z,10.61
2022-12-01T13:40:46.974Z,10.66
2022-12-01T13:43:21.850Z,10.68
2022-12-01T13:45:49.846Z,10.70
2022-12-01T13:48:30.465Z,10.74
2022-12-01T13:50:59.465Z,10.81
2022-12-01T13:53:37.605Z,10.78
2022-12-01T13:56:04.731Z,10.78
2022-12-01T13:58:34.472Z,10.82
2022-12-01T14:01:20.066Z,10.71
2022-12-01T14:04:11.736Z,10.71
2022-12-01T14:06:49.701Z,10.84
2022-12-01T14:09:35.194Z,10.86
2022-12-01T14:12:25.510Z,10.72
2022-12-01T14:14:59.941Z,10.84
2022-12-01T14:17:31.710Z,10.88
2022-12-01T14:20:20.220Z,10.83
2022-12-01T14:23:02.225Z,10.85
2022-12-01T14:25:31.178Z,10.90
2022-12-01T14:28:02.558Z,10.82
2022-12-01T14:30:41.774Z,10.70
2022-12-01T14:33:39.456Z,10.78
2022-12-01T14:36:43.534Z,10.68
2022-12-01T14:39:42.506Z,10.60
2022-12-01T14:42:12.005Z,10.64
2022-12-01T14:44:44.497Z,10.60
2022-12-01T14:47:17.200Z,10.58
2022-12-01T14:50:13.344Z,10.40
2022-12-01T14:53:06.377Z,10.43
2022-12-01T14:55:41.862Z,10.43
2022-12-01T14:58:17.079Z,10.40
2022-12-01T15:01:02.404Z,10.33
2022-12-01T15:03:36.047Z,10.35
2022-12-01T15:06:02.967Z,10.39
2022-12-01T15:08:42.040Z,10.30
2022-12-01T15:11:22.751Z,10.20
2022-12-01T15:13:55.204Z,10.21
2022-12-01T15:16:24.712Z,10.13
2022-12-01T15:18:52.400Z,10.18
2022-12-01T15:21:29.675Z,10.03
2022-12-01T15:24:05.859Z,10.05
2022-12-01T15:26:46.068Z,9.97
2022-12-01T15:29:25.987Z,9.90
2022-12-01T15:31:56.421Z,9.92
2022-12-01T15:34:36.330Z,9.91
2022-12-01T15:37:05.724Z,9.87
2022-12-01T15:39:41.688Z,9.84
2022-12-01T15:42:29.048Z,9.80
2022-12-01T15:45:03.967Z,9.78
2022-12-01T15:47:36.404Z,9.78
2022-12-01T15:50:05.400Z,9.73
2022-12-01T15:52:33.745Z,9.78
2022-12-01T15:55:04.621Z,9.74
2022-12-01T15:57:31.425Z,9.70
2022-12-01T15:59:58.458Z,9.67
2022-12-01T16:02:34.448Z,9.67
2022-12-01T16:05:04.812Z,9.63
2022-12-01T16:08:11.418Z,9.58
2022-12-01T16:10:35.299Z,9.52
2022-12-01T16:13:36.413Z,9.46
2022-12-01T16:16:42.284Z,9.48
2022-12-01T16:19:09.048Z,9.48
2022-12-01T16:22:00.143Z,9.34
2022-12-01T16:24:33.188Z,9.42
2022-12-01T16:27:16.354Z,9.37
2022-12-01T16:29:45.976Z,9.35
2022-12-01T16:32:20.669Z,9.31
2022-12-01T16:34:49.710Z,9.32
2022-12-01T16:37:16.660Z,9.29
2022-12-01T16:39:43.526Z,9.28
2022-12-01T16:42:13.914Z,9.22
2022-12-01T16:44:41.779Z,9.16
2022-12-01T16:47:20.948Z,9.11
2022-12-01T16:49:48.036Z,9.13
2022-12-01T16:52:42.918Z,9.12
2022-12-01T16:55:02.081Z,9.07
2022-12-01T16:57:29.365Z,9.02
2022-12-01T16:59:56.114Z,9.00
2022-12-01T17:02:22.942Z,8.96
2022-12-01T17:04:49.980Z,8.94
2022-12-01T17:07:16.815Z,8.92
2022-12-01T17:09:43.604Z,8.91
2022-12-01T17:12:10.373Z,8.89
2022-12-01T17:14:37.155Z,8.86
2022-12-01T17:17:03.992Z,8.84
2022-12-01T17:19:30.708Z,8.81
2022-12-01T17:21:57.470Z,8.78
2022-12-01T17:24:26.096Z,8.77
2022-12-01T17:26:52.879Z,8.72
2022-12-01T17:29:19.704Z,8.67
2022-12-01T17:31:46.523Z,8.66
2022-12-01T17:34:13.358Z,8.61
2022-12-01T17:36:40.118Z,8.59
2022-12-01T17:39:06.915Z,8.52
2022-12-01T17:41:35.863Z,8.49
2022-12-01T17:44:05.846Z,8.46
2022-12-01T17:46:32.789Z,8.46
2022-12-01T17:48:59.662Z,8.44
2022-12-01T17:51:26.442Z,8.42
2022-12-01T17:53:54.280Z,8.37
2022-12-01T17:56:21.092Z,8.37
2022-12-01T17:58:50.550Z,8.35
2022-12-01T18:01:21.387Z,8.34
2022-12-01T18:03:51.126Z,8.33
2022-12-01T18:06:20.018Z,8.29
2022-12-01T18:08:47.211Z,8.28
2022-12-01T18:11:17.251Z,8.25
2022-12-01T18:13:47.088Z,8.24
2022-12-01T18:16:26.184Z,8.20
2022-12-01T18:18:54.363Z,8.23
2022-12-01T18:21:23.922Z,8.21
2022-12-01T18:23:56.134Z,8.18
2022-12-01T18:26:23.648Z,8.17
2022-12-01T18:28:55.396Z,8.18
2022-12-01T18:31:22.296Z,8.16
2022-12-01T18:33:49.479Z,8.20
2022-12-01T18:36:22.673Z,8.20
2022-12-01T18:38:50.620Z,8.21
2022-12-01T18:41:18.491Z,8.26
2022-12-01T18:43:45.775Z,8.27
2022-12-01T18:46:14.910Z,8.31
2022-12-01T18:48:49.715Z,8.29
2022-12-01T18:51:16.508Z,8.31
2022-12-01T18:53:45.547Z,8.35
2022-12-01T18:56:15.179Z,8.31
2022-12-01T18:58:42.587Z,8.37
2022-12-01T19:01:24.821Z,8.34
2022-12-01T19:03:51.832Z,8.32
2022-12-01T19:06:18.749Z,8.29
2022-12-01T19:08:45.589Z,8.30
2022-12-01T19:11:13.196Z,8.27
2022-12-01T19:13:40.164Z,8.23
2022-12-01T19:16:08.709Z,8.26
2022-12-01T19:18:36.633Z,8.24
2022-12-01T19:21:05.779Z,8.28
2022-12-01T19:23:32.967Z,8.32
2022-12-01T19:26:06.574Z,8.34
2022-12-01T19:28:34.975Z,8.34
2022-12-01T19:31:07.998Z,8.33
2022-12-01T19:33:35.168Z,8.36
2022-12-01T19:36:10.712Z,8.40
2022-12-01T19:38:37.862Z,8.36
2022-12-01T19:41:06.074Z,8.38
2022-12-01T19:43:36.308Z,8.37
2022-12-01T19:46:07.587Z,8.32
2022-12-01T19:48:34.587Z,8.28
2022-12-01T19:51:01.600Z,8.33
2022-12-01T19:53:33.269Z,8.35
2022-12-01T19:56:02.702Z,8.31
2022-12-01T19:58:31.909Z,8.35
2022-12-01T20:01:10.796Z,8.27
2022-12-01T20:03:38.310Z,8.35
2022-12-01T20:06:08.849Z,8.36
2022-12-01T20:08:36.277Z,8.38
2022-12-01T20:11:04.472Z,8.43
2022-12-01T20:13:36.144Z,8.42
2022-12-01T20:16:05.271Z,8.46
2022-12-01T20:18:32.362Z,8.49
2022-12-01T20:21:05.749Z,8.43
2022-12-01T20:23:32.811Z,8.50
2022-12-01T20:26:01.992Z,8.49
2022-12-01T20:28:29.437Z,8.53
2022-12-01T20:30:56.429Z,8.56
2022-12-01T20:33:23.848Z,8.54
2022-12-01T20:35:50.707Z,8.56
2022-12-01T20:38:21.685Z,8.55
2022-12-01T20:40:52.695Z,8.54
2022-12-01T20:43:19.510Z,8.59
2022-12-01T20:45:46.718Z,8.60
2022-12-01T20:48:13.954Z,8.62
2022-12-01T20:50:40.924Z,8.53
2022-12-01T20:53:07.991Z,8.60
2022-12-01T20:55:36.961Z,8.62
2022-12-01T20:58:05.239Z,8.65
2022-12-01T21:00:32.145Z,8.64
2022-12-01T21:02:58.897Z,8.64
2022-12-01T21:05:26.344Z,8.66
2022-12-01T21:07:53.700Z,8.66
2022-12-01T21:10:21.178Z,8.68
2022-12-01T21:13:09.999Z,8.65
2022-12-01T21:15:46.615Z,8.57
2022-12-01T21:18:22.880Z,8.68
2022-12-01T21:20:55.341Z,8.72
2022-12-01T21:23:22.467Z,8.77
2022-12-01T21:25:49.509Z,8.75
2022-12-01T21:28:22.583Z,8.78
2022-12-01T21:30:51.175Z,8.78
2022-12-01T21:33:30.966Z,8.78
2022-12-01T21:35:58.187Z,8.79
2022-12-01T21:38:25.280Z,8.80
2022-12-01T21:40:52.368Z,8.80
2022-12-01T21:43:24.157Z,8.79
2022-12-01T21:45:53.948Z,8.77
2022-12-01T21:48:25.736Z,8.74
2022-12-01T21:51:00.202Z,8.72
2022-12-01T21:53:38.492Z,8.75
2022-12-01T21:56:05.462Z,8.76
2022-12-01T21:58:35.524Z,8.71
2022-12-01T22:01:03.430Z,8.75
2022-12-01T22:03:37.560Z,8.76
2022-12-01T22:09:01.063Z,8.74
2022-12-01T22:11:31.291Z,8.75
2022-12-01T22:14:20.992Z,8.71
2022-12-01T22:16:51.793Z,8.74
2022-12-01T22:19:35.721Z,8.70
2022-12-01T22:22:08.637Z,8.72
2022-12-01T22:24:40.526Z,8.73
2022-12-01T22:27:27.272Z,8.71
2022-12-01T22:30:00.336Z,8.70
2022-12-01T22:32:51.321Z,8.64
2022-12-01T22:35:27.414Z,8.73
2022-12-01T22:37:59.502Z,8.73
2022-12-01T22:40:48.588Z,8.68
2022-12-01T22:43:30.036Z,8.75
2022-12-01T22:46:02.416Z,8.70
2022-12-01T22:48:59.911Z,8.68
2022-12-01T22:51:47.179Z,8.74
2022-12-01T22:54:16.612Z,8.73
2022-12-01T22:56:45.494Z,8.73
2022-12-01T22:59:29.740Z,8.68
2022-12-01T23:01:58.564Z,8.72
2022-12-01T23:04:32.131Z,8.68
2022-12-01T23:07:09.611Z,8.73
2022-12-01T23:09:38.374Z,8.71
2022-12-01T23:12:20.939Z,8.71
2022-12-01T23:14:51.160Z,8.71
2022-12-01T23:17:29.544Z,8.70
2022-12-01T23:20:16.384Z,8.66
2022-12-01T23:22:43.227Z,8.70
2022-12-01T23:25:18.906Z,8.66
2022-12-01T23:27:48.292Z,8.68
2022-12-01T23:30:16.903Z,8.70
2022-12-01T23:32:44.809Z,8.70
2022-12-01T23:35:16.188Z,8.69
2022-12-01T23:37:43.635Z,8.54
2022-12-01T23:40:19.616Z,8.64
2022-12-01T23:42:48.937Z,8.66
2022-12-01T23:45:27.570Z,8.65
2022-12-01T23:47:56.739Z,8.66
2022-12-01T23:50:26.259Z,8.65
2022-12-01T23:52:54.208Z,8.70
2022-12-01T23:55:28.886Z,8.68
2022-12-01T23:57:55.980Z,8.71
